sensor_id;sensor_type;location;lat;lon;timestamp;pressure;altitude;pressure_sealevel;temperature;humidity
6096;BME280;25081;42.698;23.298;2024-03-07T00:01:01;95072.00;;;7.70;100.00
6096;BME280;25081;42.698;23.298;2024-03-07T00:03:10;95069.25;;;7.68;100.00
6096;BME280;25081;42.698;23.298;2024-03-07T00:05:19;95051.30;;;7.63;100.00
6096;BME280;25081;42.698;23.298;2024-03-07T00:07:28;95068.64;;;7.66;100.00
6096;BME280;25081;42.698;23.298;2024-03-07T00:09:36;95070.56;;;7.61;100.00
6096;BME280;25081;42.698;23.298;2024-03-07T00:11:45;95072.70;;;7.62;100.00
6096;BME280;25081;42.698;23.298;2024-03-07T00:13:54;95066.80;;;7.60;100.00
6096;BME280;25081;42.698;23.298;2024-03-07T00:16:03;95065.48;;;7.46;100.00
6096;BME280;25081;42.698;23.298;2024-03-07T00:18:12;95053.56;;;7.53;100.00
6096;BME280;25081;42.698;23.298;2024-03-07T00:20:20;95058.53;;;7.39;100.00
6096;BME280;25081;42.698;23.298;2024-03-07T00:22:29;95056.49;;;7.28;100.00
6096;BME280;25081;42.698;23.298;2024-03-07T00:24:38;95054.16;;;7.35;100.00
6096;BME280;25081;42.698;23.298;2024-03-07T00:26:47;95051.81;;;7.36;100.00
6096;BME280;25081;42.698;23.298;2024-03-07T00:28:56;95052.69;;;7.13;100.00
6096;BME280;25081;42.698;23.298;2024-03-07T00:31:05;95043.71;;;7.01;100.00
6096;BME280;25081;42.698;23.298;2024-03-07T00:33:15;95043.00;;;7.03;100.00
6096;BME280;25081;42.698;23.298;2024-03-07T00:35:24;95045.16;;;7.10;100.00
6096;BME280;25081;42.698;23.298;2024-03-07T00:37:33;95048.61;;;6.97;100.00
6096;BME280;25081;42.698;23.298;2024-03-07T00:39:42;95046.56;;;6.99;100.00
6096;BME280;25081;42.698;23.298;2024-03-07T00:41:51;95047.67;;;6.87;100.00
6096;BME280;25081;42.698;23.298;2024-03-07T00:44:00;95052.69;;;7.00;100.00
6096;BME280;25081;42.698;23.298;2024-03-07T00:46:09;95047.08;;;6.99;100.00
6096;BME280;25081;42.698;23.298;2024-03-07T00:48:18;95050.60;;;6.82;100.00
6096;BME280;25081;42.698;23.298;2024-03-07T00:50:27;95051.54;;;6.92;100.00
6096;BME280;25081;42.698;23.298;2024-03-07T00:52:36;95049.59;;;6.76;100.00
6096;BME280;25081;42.698;23.298;2024-03-07T00:54:44;95044.66;;;6.73;100.00
6096;BME280;25081;42.698;23.298;2024-03-07T00:56:53;95044.27;;;6.70;100.00
6096;BME280;25081;42.698;23.298;2024-03-07T00:59:02;95042.91;;;6.63;100.00
6096;BME280;25081;42.698;23.298;2024-03-07T01:01:11;95032.92;;;6.65;100.00
6096;BME280;25081;42.698;23.298;2024-03-07T01:03:20;95040.05;;;6.65;100.00
6096;BME280;25081;42.698;23.298;2024-03-07T01:05:28;95030.98;;;6.63;100.00
6096;BME280;25081;42.698;23.298;2024-03-07T01:07:37;95032.21;;;6.60;100.00
6096;BME280;25081;42.698;23.298;2024-03-07T01:09:46;95032.31;;;6.63;100.00
6096;BME280;25081;42.698;23.298;2024-03-07T01:11:55;95021.00;;;6.58;100.00
6096;BME280;25081;42.698;23.298;2024-03-07T01:14:03;95022.96;;;6.74;100.00
6096;BME280;25081;42.698;23.298;2024-03-07T01:16:12;95022.28;;;6.76;100.00
6096;BME280;25081;42.698;23.298;2024-03-07T01:18:21;95016.98;;;6.76;100.00
6096;BME280;25081;42.698;23.298;2024-03-07T01:20:30;95018.78;;;6.75;100.00
6096;BME280;25081;42.698;23.298;2024-03-07T01:22:39;95018.92;;;6.91;100.00
6096;BME280;25081;42.698;23.298;2024-03-07T01:24:48;95016.68;;;6.95;100.00
6096;BME280;25081;42.698;23.298;2024-03-07T01:26:57;95021.48;;;6.88;100.00
6096;BME280;25081;42.698;23.298;2024-03-07T01:29:05;95027.96;;;6.66;100.00
6096;BME280;25081;42.698;23.298;2024-03-07T01:31:14;95022.56;;;6.70;100.00
6096;BME280;25081;42.698;23.298;2024-03-07T01:33:23;95023.48;;;6.67;100.00
6096;BME280;25081;42.698;23.298;2024-03-07T01:35:32;95012.88;;;6.67;100.00
6096;BME280;25081;42.698;23.298;2024-03-07T01:37:41;95011.00;;;6.54;100.00
6096;BME280;25081;42.698;23.298;2024-03-07T01:39:49;95005.50;;;6.49;100.00
6096;BME280;25081;42.698;23.298;2024-03-07T01:41:58;95000.15;;;6.66;100.00
6096;BME280;25081;42.698;23.298;2024-03-07T01:44:08;94998.00;;;6.72;100.00
6096;BME280;25081;42.698;23.298;2024-03-07T01:46:17;95008.47;;;6.63;100.00
6096;BME280;25081;42.698;23.298;2024-03-07T01:48:26;95004.38;;;6.54;100.00
6096;BME280;25081;42.698;23.298;2024-03-07T01:50:35;95008.09;;;6.66;100.00
6096;BME280;25081;42.698;23.298;2024-03-07T01:52:44;94987.91;;;6.58;100.00
6096;BME280;25081;42.698;23.298;2024-03-07T01:54:53;95012.98;;;6.69;100.00
6096;BME280;25081;42.698;23.298;2024-03-07T01:57:02;95025.13;;;6.81;100.00
6096;BME280;25081;42.698;23.298;2024-03-07T01:59:11;95023.41;;;6.91;100.00
6096;BME280;25081;42.698;23.298;2024-03-07T02:01:20;95032.78;;;6.93;100.00
6096;BME280;25081;42.698;23.298;2024-03-07T02:03:29;95030.66;;;6.99;100.00
6096;BME280;25081;42.698;23.298;2024-03-07T02:05:37;95026.01;;;7.14;100.00
6096;BME280;25081;42.698;23.298;2024-03-07T02:07:46;95021.41;;;7.19;100.00
6096;BME280;25081;42.698;23.298;2024-03-07T02:10:01;95018.74;;;7.12;100.00
6096;BME280;25081;42.698;23.298;2024-03-07T02:12:09;95020.99;;;7.09;100.00
6096;BME280;25081;42.698;23.298;2024-03-07T02:14:18;95017.61;;;7.04;100.00
6096;BME280;25081;42.698;23.298;2024-03-07T02:16:27;94975.09;;;6.69;100.00
6096;BME280;25081;42.698;23.298;2024-03-07T02:18:36;95008.55;;;6.96;100.00
6096;BME280;25081;42.698;23.298;2024-03-07T02:20:45;95008.30;;;6.71;100.00
6096;BME280;25081;42.698;23.298;2024-03-07T02:22:54;94999.23;;;6.70;100.00
6096;BME280;25081;42.698;23.298;2024-03-07T02:25:03;95001.03;;;6.63;100.00
6096;BME280;25081;42.698;23.298;2024-03-07T02:27:12;94996.98;;;6.67;100.00
6096;BME280;25081;42.698;23.298;2024-03-07T02:29:21;94992.25;;;6.55;100.00
6096;BME280;25081;42.698;23.298;2024-03-07T02:31:29;94993.27;;;6.54;100.00
6096;BME280;25081;42.698;23.298;2024-03-07T02:33:43;95000.63;;;6.59;100.00
6096;BME280;25081;42.698;23.298;2024-03-07T02:35:52;95003.17;;;6.63;100.00
6096;BME280;25081;42.698;23.298;2024-03-07T02:38:01;95007.69;;;6.69;100.00
6096;BME280;25081;42.698;23.298;2024-03-07T02:40:11;95018.22;;;6.56;100.00
6096;BME280;25081;42.698;23.298;2024-03-07T02:42:20;94998.98;;;6.21;100.00
6096;BME280;25081;42.698;23.298;2024-03-07T02:44:29;95028.14;;;6.34;100.00
6096;BME280;25081;42.698;23.298;2024-03-07T02:46:37;95023.14;;;6.28;100.00
6096;BME280;25081;42.698;23.298;2024-03-07T02:48:46;95029.25;;;6.29;100.00
6096;BME280;25081;42.698;23.298;2024-03-07T02:50:55;95021.09;;;6.07;100.00
6096;BME280;25081;42.698;23.298;2024-03-07T02:53:04;95023.52;;;6.01;100.00
6096;BME280;25081;42.698;23.298;2024-03-07T02:55:13;95022.71;;;6.01;100.00
6096;BME280;25081;42.698;23.298;2024-03-07T02:57:22;95029.09;;;5.85;100.00
6096;BME280;25081;42.698;23.298;2024-03-07T02:59:31;95033.88;;;5.86;100.00
6096;BME280;25081;42.698;23.298;2024-03-07T03:01:39;95034.16;;;5.80;100.00
6096;BME280;25081;42.698;23.298;2024-03-07T03:03:48;95033.77;;;5.83;100.00
6096;BME280;25081;42.698;23.298;2024-03-07T03:05:57;95039.25;;;5.92;100.00
6096;BME280;25081;42.698;23.298;2024-03-07T03:08:07;95036.59;;;6.10;100.00
6096;BME280;25081;42.698;23.298;2024-03-07T03:10:15;95034.92;;;6.02;100.00
6096;BME280;25081;42.698;23.298;2024-03-07T03:12:24;95028.45;;;6.11;100.00
6096;BME280;25081;42.698;23.298;2024-03-07T03:14:33;95026.16;;;6.19;100.00
6096;BME280;25081;42.698;23.298;2024-03-07T03:16:43;95025.14;;;6.20;100.00
6096;BME280;25081;42.698;23.298;2024-03-07T03:18:52;95027.17;;;6.18;100.00
6096;BME280;25081;42.698;23.298;2024-03-07T03:21:00;95028.60;;;6.20;100.00
6096;BME280;25081;42.698;23.298;2024-03-07T03:23:09;95034.16;;;6.15;100.00
6096;BME280;25081;42.698;23.298;2024-03-07T03:25:18;95026.02;;;6.10;100.00
6096;BME280;25081;42.698;23.298;2024-03-07T03:27:27;95035.12;;;6.18;100.00
6096;BME280;25081;42.698;23.298;2024-03-07T03:29:36;95005.11;;;6.04;100.00
6096;BME280;25081;42.698;23.298;2024-03-07T03:31:45;95034.52;;;6.22;100.00
6096;BME280;25081;42.698;23.298;2024-03-07T03:33:54;95035.53;;;6.21;100.00
6096;BME280;25081;42.698;23.298;2024-03-07T03:36:03;95040.42;;;6.24;100.00
6096;BME280;25081;42.698;23.298;2024-03-07T03:38:11;95048.66;;;6.19;100.00
6096;BME280;25081;42.698;23.298;2024-03-07T03:40:20;95062.28;;;6.40;100.00
6096;BME280;25081;42.698;23.298;2024-03-07T03:42:29;95049.66;;;6.42;100.00
6096;BME280;25081;42.698;23.298;2024-03-07T03:44:38;95031.46;;;6.25;100.00
6096;BME280;25081;42.698;23.298;2024-03-07T03:46:47;95036.70;;;6.12;100.00
6096;BME280;25081;42.698;23.298;2024-03-07T03:48:56;95029.08;;;6.13;100.00
6096;BME280;25081;42.698;23.298;2024-03-07T03:51:06;95023.23;;;6.07;100.00
6096;BME280;25081;42.698;23.298;2024-03-07T03:53:14;95029.44;;;6.03;100.00
6096;BME280;25081;42.698;23.298;2024-03-07T03:55:23;95031.51;;;5.91;100.00
6096;BME280;25081;42.698;23.298;2024-03-07T03:57:31;95019.07;;;8.44;100.00
6096;BME280;25081;42.698;23.298;2024-03-07T03:59:43;95007.50;;;7.70;98.48
6096;BME280;25081;42.698;23.298;2024-03-07T04:01:52;95018.53;;;6.50;100.00
6096;BME280;25081;42.698;23.298;2024-03-07T04:04:01;95014.23;;;5.84;100.00
6096;BME280;25081;42.698;23.298;2024-03-07T04:06:10;95018.66;;;5.77;100.00
6096;BME280;25081;42.698;23.298;2024-03-07T04:08:18;95017.13;;;5.89;100.00
6096;BME280;25081;42.698;23.298;2024-03-07T04:10:28;95018.82;;;5.86;100.00
6096;BME280;25081;42.698;23.298;2024-03-07T04:12:38;95023.21;;;5.55;100.00
6096;BME280;25081;42.698;23.298;2024-03-07T04:14:46;95023.03;;;5.74;100.00
6096;BME280;25081;42.698;23.298;2024-03-07T04:16:55;95020.44;;;5.81;100.00
6096;BME280;25081;42.698;23.298;2024-03-07T04:19:03;95029.59;;;5.67;100.00
6096;BME280;25081;42.698;23.298;2024-03-07T04:21:12;95032.30;;;5.46;100.00
6096;BME280;25081;42.698;23.298;2024-03-07T04:23:21;95036.06;;;5.48;100.00
6096;BME280;25081;42.698;23.298;2024-03-07T04:25:30;95011.09;;;5.50;100.00
6096;BME280;25081;42.698;23.298;2024-03-07T04:27:38;95029.39;;;5.69;100.00
6096;BME280;25081;42.698;23.298;2024-03-07T04:29:47;95028.57;;;5.79;100.00
6096;BME280;25081;42.698;23.298;2024-03-07T04:31:56;95029.53;;;5.71;100.00
6096;BME280;25081;42.698;23.298;2024-03-07T04:34:05;95035.05;;;5.49;100.00
6096;BME280;25081;42.698;23.298;2024-03-07T04:36:14;95039.67;;;5.51;100.00
6096;BME280;25081;42.698;23.298;2024-03-07T04:38:23;95031.54;;;5.52;100.00
6096;BME280;25081;42.698;23.298;2024-03-07T04:40:31;95033.03;;;5.61;100.00
6096;BME280;25081;42.698;23.298;2024-03-07T04:42:40;95031.98;;;5.45;100.00
6096;BME280;25081;42.698;23.298;2024-03-07T04:44:49;95031.36;;;5.71;100.00
6096;BME280;25081;42.698;23.298;2024-03-07T04:46:58;95035.36;;;5.60;100.00
6096;BME280;25081;42.698;23.298;2024-03-07T04:49:06;95030.69;;;5.62;100.00
6096;BME280;25081;42.698;23.298;2024-03-07T04:51:15;95031.31;;;5.64;100.00
6096;BME280;25081;42.698;23.298;2024-03-07T04:53:24;95035.30;;;5.54;100.00
6096;BME280;25081;42.698;23.298;2024-03-07T04:55:33;95038.27;;;5.55;100.00
6096;BME280;25081;42.698;23.298;2024-03-07T04:57:42;95043.66;;;5.57;100.00
6096;BME280;25081;42.698;23.298;2024-03-07T04:59:50;95044.14;;;5.50;100.00
6096;BME280;25081;42.698;23.298;2024-03-07T05:01:59;95043.23;;;5.54;100.00
6096;BME280;25081;42.698;23.298;2024-03-07T05:04:08;95049.70;;;5.34;100.00
6096;BME280;25081;42.698;23.298;2024-03-07T05:06:17;95057.88;;;5.28;100.00
6096;BME280;25081;42.698;23.298;2024-03-07T05:08:25;95053.23;;;5.09;100.00
6096;BME280;25081;42.698;23.298;2024-03-07T05:10:34;95063.75;;;5.13;100.00
6096;BME280;25081;42.698;23.298;2024-03-07T05:12:43;95059.50;;;5.29;100.00
6096;BME280;25081;42.698;23.298;2024-03-07T05:14:52;95057.59;;;4.95;100.00
6096;BME280;25081;42.698;23.298;2024-03-07T05:17:01;95052.73;;;4.88;100.00
6096;BME280;25081;42.698;23.298;2024-03-07T05:19:15;95060.38;;;4.72;100.00
6096;BME280;25081;42.698;23.298;2024-03-07T05:21:24;95057.83;;;5.00;100.00
6096;BME280;25081;42.698;23.298;2024-03-07T05:23:39;95055.52;;;5.12;100.00
6096;BME280;25081;42.698;23.298;2024-03-07T05:25:48;95060.98;;;5.21;100.00
6096;BME280;25081;42.698;23.298;2024-03-07T05:27:56;95069.86;;;5.03;100.00
6096;BME280;25081;42.698;23.298;2024-03-07T05:30:07;95081.91;;;4.91;100.00
6096;BME280;25081;42.698;23.298;2024-03-07T05:32:23;95076.11;;;4.70;100.00
6096;BME280;25081;42.698;23.298;2024-03-07T05:34:31;95079.72;;;4.47;100.00
6096;BME280;25081;42.698;23.298;2024-03-07T05:36:40;95084.19;;;4.47;100.00
6096;BME280;25081;42.698;23.298;2024-03-07T05:38:52;95081.06;;;4.58;100.00
6096;BME280;25081;42.698;23.298;2024-03-07T05:41:01;95084.74;;;4.53;100.00
6096;BME280;25081;42.698;23.298;2024-03-07T05:43:10;95085.47;;;4.72;100.00
6096;BME280;25081;42.698;23.298;2024-03-07T05:45:18;95081.28;;;4.78;100.00
6096;BME280;25081;42.698;23.298;2024-03-07T05:47:27;95071.80;;;5.05;100.00
6096;BME280;25081;42.698;23.298;2024-03-07T05:49:36;95077.40;;;5.06;100.00
6096;BME280;25081;42.698;23.298;2024-03-07T05:51:45;95078.66;;;5.31;100.00
6096;BME280;25081;42.698;23.298;2024-03-07T05:53:54;95079.90;;;5.35;100.00
6096;BME280;25081;42.698;23.298;2024-03-07T05:56:03;95080.47;;;5.09;100.00
6096;BME280;25081;42.698;23.298;2024-03-07T05:58:12;95073.04;;;5.20;100.00
6096;BME280;25081;42.698;23.298;2024-03-07T06:00:21;95086.71;;;5.23;100.00
6096;BME280;25081;42.698;23.298;2024-03-07T06:02:30;95091.92;;;5.16;100.00
6096;BME280;25081;42.698;23.298;2024-03-07T06:04:39;95099.57;;;4.79;100.00
6096;BME280;25081;42.698;23.298;2024-03-07T06:06:48;95095.30;;;4.78;100.00
6096;BME280;25081;42.698;23.298;2024-03-07T06:08:57;95096.19;;;4.85;100.00
6096;BME280;25081;42.698;23.298;2024-03-07T06:11:05;95098.64;;;4.87;100.00
6096;BME280;25081;42.698;23.298;2024-03-07T06:13:15;95095.94;;;5.02;100.00
6096;BME280;25081;42.698;23.298;2024-03-07T06:15:23;95099.06;;;4.80;100.00
6096;BME280;25081;42.698;23.298;2024-03-07T06:17:32;95099.34;;;4.96;100.00
6096;BME280;25081;42.698;23.298;2024-03-07T06:19:41;95101.17;;;5.16;100.00
6096;BME280;25081;42.698;23.298;2024-03-07T06:21:49;95112.44;;;5.14;100.00
6096;BME280;25081;42.698;23.298;2024-03-07T06:23:58;95126.35;;;5.12;100.00
6096;BME280;25081;42.698;23.298;2024-03-07T06:26:07;95123.63;;;5.06;100.00
6096;BME280;25081;42.698;23.298;2024-03-07T06:28:21;95125.08;;;5.19;100.00
6096;BME280;25081;42.698;23.298;2024-03-07T06:30:29;95119.86;;;5.36;100.00
6096;BME280;25081;42.698;23.298;2024-03-07T06:32:38;95126.52;;;5.54;100.00
6096;BME280;25081;42.698;23.298;2024-03-07T06:34:47;95114.66;;;5.22;100.00
6096;BME280;25081;42.698;23.298;2024-03-07T06:36:56;95112.00;;;5.43;100.00
6096;BME280;25081;42.698;23.298;2024-03-07T06:39:05;95114.67;;;5.50;100.00
6096;BME280;25081;42.698;23.298;2024-03-07T06:41:13;95109.74;;;5.68;99.82
6096;BME280;25081;42.698;23.298;2024-03-07T06:43:22;95108.21;;;5.52;99.05
6096;BME280;25081;42.698;23.298;2024-03-07T06:45:31;95100.23;;;5.73;99.26
6096;BME280;25081;42.698;23.298;2024-03-07T06:47:40;95103.81;;;5.77;98.85
6096;BME280;25081;42.698;23.298;2024-03-07T06:49:49;95083.27;;;5.79;98.97
6096;BME280;25081;42.698;23.298;2024-03-07T06:51:58;95112.31;;;5.44;99.63
6096;BME280;25081;42.698;23.298;2024-03-07T06:54:07;95118.66;;;5.17;98.95
6096;BME280;25081;42.698;23.298;2024-03-07T06:56:15;95124.88;;;4.99;99.55
6096;BME280;25081;42.698;23.298;2024-03-07T06:58:24;95125.95;;;4.94;100.00
6096;BME280;25081;42.698;23.298;2024-03-07T07:00:33;95118.78;;;5.09;100.00
6096;BME280;25081;42.698;23.298;2024-03-07T07:02:43;95126.86;;;5.12;100.00
6096;BME280;25081;42.698;23.298;2024-03-07T07:04:52;95125.27;;;5.07;100.00
6096;BME280;25081;42.698;23.298;2024-03-07T07:07:00;95122.43;;;5.08;100.00
6096;BME280;25081;42.698;23.298;2024-03-07T07:09:09;95120.61;;;5.09;100.00
6096;BME280;25081;42.698;23.298;2024-03-07T07:11:18;95108.32;;;4.91;100.00
6096;BME280;25081;42.698;23.298;2024-03-07T07:13:27;95109.91;;;4.96;100.00
6096;BME280;25081;42.698;23.298;2024-03-07T07:15:35;95104.20;;;5.13;100.00
6096;BME280;25081;42.698;23.298;2024-03-07T07:17:45;95095.64;;;5.33;100.00
6096;BME280;25081;42.698;23.298;2024-03-07T07:19:53;95092.19;;;5.22;99.95
6096;BME280;25081;42.698;23.298;2024-03-07T07:22:02;95098.53;;;5.27;99.39
6096;BME280;25081;42.698;23.298;2024-03-07T07:24:11;95101.19;;;5.66;99.58
6096;BME280;25081;42.698;23.298;2024-03-07T07:26:19;95110.91;;;5.97;97.00
6096;BME280;25081;42.698;23.298;2024-03-07T07:28:28;95112.21;;;5.59;97.24
6096;BME280;25081;42.698;23.298;2024-03-07T07:30:37;95108.25;;;5.69;97.88
6096;BME280;25081;42.698;23.298;2024-03-07T07:32:46;95099.03;;;5.76;97.41
6096;BME280;25081;42.698;23.298;2024-03-07T07:34:54;95096.34;;;5.97;97.84
6096;BME280;25081;42.698;23.298;2024-03-07T07:37:03;95085.05;;;7.52;100.00
6096;BME280;25081;42.698;23.298;2024-03-07T07:39:12;95091.63;;;9.43;94.52
6096;BME280;25081;42.698;23.298;2024-03-07T07:41:21;95088.59;;;9.08;85.98
6096;BME280;25081;42.698;23.298;2024-03-07T07:43:29;95086.45;;;8.56;84.83
6096;BME280;25081;42.698;23.298;2024-03-07T07:45:38;95089.24;;;7.37;86.19
6096;BME280;25081;42.698;23.298;2024-03-07T07:47:48;95090.43;;;7.22;89.59
6096;BME280;25081;42.698;23.298;2024-03-07T07:49:56;95090.17;;;6.90;90.16
6096;BME280;25081;42.698;23.298;2024-03-07T07:52:05;95090.62;;;6.70;91.75
6096;BME280;25081;42.698;23.298;2024-03-07T07:54:14;95085.94;;;7.09;92.44
6096;BME280;25081;42.698;23.298;2024-03-07T07:56:23;95090.34;;;7.19;90.90
6096;BME280;25081;42.698;23.298;2024-03-07T07:58:31;95085.17;;;6.91;92.10
6096;BME280;25081;42.698;23.298;2024-03-07T08:00:40;95084.59;;;6.96;91.79
6096;BME280;25081;42.698;23.298;2024-03-07T08:02:56;95097.94;;;6.98;92.01
6096;BME280;25081;42.698;23.298;2024-03-07T08:05:04;95093.37;;;7.09;91.61
6096;BME280;25081;42.698;23.298;2024-03-07T08:07:13;95097.63;;;7.04;91.42
6096;BME280;25081;42.698;23.298;2024-03-07T08:09:22;95094.41;;;7.22;90.92
6096;BME280;25081;42.698;23.298;2024-03-07T08:11:31;95102.06;;;6.36;93.05
6096;BME280;25081;42.698;23.298;2024-03-07T08:13:40;95100.36;;;6.86;92.64
6096;BME280;25081;42.698;23.298;2024-03-07T08:15:49;95101.00;;;7.02;91.22
6096;BME280;25081;42.698;23.298;2024-03-07T08:17:58;95106.12;;;7.10;91.22
6096;BME280;25081;42.698;23.298;2024-03-07T08:20:08;95106.66;;;7.16;90.73
6096;BME280;25081;42.698;23.298;2024-03-07T08:22:16;95111.17;;;7.35;89.93
6096;BME280;25081;42.698;23.298;2024-03-07T08:24:25;95113.50;;;7.28;90.55
6096;BME280;25081;42.698;23.298;2024-03-07T08:26:34;95113.52;;;7.48;89.60
6096;BME280;25081;42.698;23.298;2024-03-07T08:28:43;95119.27;;;7.07;91.10
6096;BME280;25081;42.698;23.298;2024-03-07T08:30:52;95124.34;;;7.46;89.82
6096;BME280;25081;42.698;23.298;2024-03-07T08:33:01;95127.27;;;7.27;89.08
6096;BME280;25081;42.698;23.298;2024-03-07T08:35:10;95133.28;;;6.95;89.81
6096;BME280;25081;42.698;23.298;2024-03-07T08:37:19;95140.69;;;6.82;91.69
6096;BME280;25081;42.698;23.298;2024-03-07T08:39:28;95139.93;;;6.71;91.60
6096;BME280;25081;42.698;23.298;2024-03-07T08:41:36;95138.34;;;7.07;91.18
6096;BME280;25081;42.698;23.298;2024-03-07T08:43:45;95135.23;;;7.40;90.78
6096;BME280;25081;42.698;23.298;2024-03-07T08:45:54;95143.94;;;7.58;90.21
6096;BME280;25081;42.698;23.298;2024-03-07T08:48:03;95131.09;;;7.75;89.55
6096;BME280;25081;42.698;23.298;2024-03-07T08:50:13;95139.67;;;7.84;89.71
6096;BME280;25081;42.698;23.298;2024-03-07T08:52:21;95147.91;;;7.71;89.10
6096;BME280;25081;42.698;23.298;2024-03-07T08:54:30;95154.75;;;6.82;89.83
6096;BME280;25081;42.698;23.298;2024-03-07T08:56:39;95153.97;;;6.88;92.44
6096;BME280;25081;42.698;23.298;2024-03-07T08:58:48;95153.88;;;7.30;91.04
6096;BME280;25081;42.698;23.298;2024-03-07T09:00:56;95151.44;;;7.28;90.58
6096;BME280;25081;42.698;23.298;2024-03-07T09:03:06;95146.48;;;7.62;89.67
6096;BME280;25081;42.698;23.298;2024-03-07T09:05:14;95148.22;;;7.59;88.70
6096;BME280;25081;42.698;23.298;2024-03-07T09:07:23;95149.25;;;7.78;88.82
6096;BME280;25081;42.698;23.298;2024-03-07T09:09:34;95149.45;;;7.70;88.17
6096;BME280;25081;42.698;23.298;2024-03-07T09:11:43;95154.64;;;7.48;88.54
6096;BME280;25081;42.698;23.298;2024-03-07T09:13:52;95163.00;;;7.51;88.56
6096;BME280;25081;42.698;23.298;2024-03-07T09:16:01;95158.01;;;7.45;88.53
6096;BME280;25081;42.698;23.298;2024-03-07T09:18:10;95156.45;;;7.40;89.17
6096;BME280;25081;42.698;23.298;2024-03-07T09:20:19;95153.43;;;7.70;88.59
6096;BME280;25081;42.698;23.298;2024-03-07T09:22:28;95157.41;;;7.70;88.37
6096;BME280;25081;42.698;23.298;2024-03-07T09:24:37;95160.43;;;7.40;88.71
6096;BME280;25081;42.698;23.298;2024-03-07T09:26:45;95161.76;;;7.40;88.89
6096;BME280;25081;42.698;23.298;2024-03-07T09:28:54;95161.78;;;7.47;89.14
6096;BME280;25081;42.698;23.298;2024-03-07T09:31:03;95162.70;;;7.43;88.84
6096;BME280;25081;42.698;23.298;2024-03-07T09:33:12;95170.08;;;7.88;87.56
6096;BME280;25081;42.698;23.298;2024-03-07T09:35:21;95161.83;;;7.93;87.04
6096;BME280;25081;42.698;23.298;2024-03-07T09:37:30;95158.36;;;7.73;86.95
6096;BME280;25081;42.698;23.298;2024-03-07T09:39:39;95160.09;;;8.03;86.11
6096;BME280;25081;42.698;23.298;2024-03-07T09:41:47;95159.66;;;7.99;85.90
6096;BME280;25081;42.698;23.298;2024-03-07T09:43:56;95158.53;;;8.38;84.92
6096;BME280;25081;42.698;23.298;2024-03-07T09:46:05;95161.09;;;8.77;84.29
6096;BME280;25081;42.698;23.298;2024-03-07T09:48:14;95161.81;;;9.04;82.68
6096;BME280;25081;42.698;23.298;2024-03-07T09:50:23;95159.44;;;8.34;83.00
6096;BME280;25081;42.698;23.298;2024-03-07T09:52:32;95162.55;;;7.91;85.91
6096;BME280;25081;42.698;23.298;2024-03-07T09:54:40;95171.59;;;7.60;87.14
6096;BME280;25081;42.698;23.298;2024-03-07T09:56:49;95164.91;;;7.03;88.28
6096;BME280;25081;42.698;23.298;2024-03-07T09:58:58;95143.80;;;7.42;88.75
6096;BME280;25081;42.698;23.298;2024-03-07T10:01:07;95149.38;;;7.74;88.57
6096;BME280;25081;42.698;23.298;2024-03-07T10:03:16;95147.10;;;7.71;88.85
6096;BME280;25081;42.698;23.298;2024-03-07T10:05:26;95146.51;;;7.95;90.67
6096;BME280;25081;42.698;23.298;2024-03-07T10:07:33;95042.45;;;6.77;89.98
6096;BME280;25081;42.698;23.298;2024-03-07T10:09:43;95146.34;;;7.27;91.21
6096;BME280;25081;42.698;23.298;2024-03-07T10:11:57;95143.96;;;7.85;90.62
6096;BME280;25081;42.698;23.298;2024-03-07T10:14:06;95136.80;;;7.79;89.03
6096;BME280;25081;42.698;23.298;2024-03-07T10:16:16;95136.90;;;8.21;88.51
6096;BME280;25081;42.698;23.298;2024-03-07T10:18:26;95131.89;;;8.15;87.64
6096;BME280;25081;42.698;23.298;2024-03-07T10:20:38;95134.62;;;8.51;86.88
6096;BME280;25081;42.698;23.298;2024-03-07T10:22:48;95129.47;;;8.63;86.81
6096;BME280;25081;42.698;23.298;2024-03-07T10:24:57;95133.29;;;8.51;85.56
6096;BME280;25081;42.698;23.298;2024-03-07T10:27:06;95134.64;;;8.73;85.04
6096;BME280;25081;42.698;23.298;2024-03-07T10:29:14;95137.32;;;8.11;86.07
6096;BME280;25081;42.698;23.298;2024-03-07T10:31:31;95124.81;;;8.38;87.99
6096;BME280;25081;42.698;23.298;2024-03-07T10:33:40;95122.76;;;8.47;84.95
6096;BME280;25081;42.698;23.298;2024-03-07T10:35:49;95126.05;;;8.42;83.96
6096;BME280;25081;42.698;23.298;2024-03-07T10:37:57;95124.53;;;8.73;85.35
6096;BME280;25081;42.698;23.298;2024-03-07T10:40:09;95128.50;;;8.79;83.73
6096;BME280;25081;42.698;23.298;2024-03-07T10:42:18;95126.96;;;8.39;84.42
6096;BME280;25081;42.698;23.298;2024-03-07T10:44:27;95096.23;;;8.69;84.06
6096;BME280;25081;42.698;23.298;2024-03-07T10:46:35;95122.15;;;9.03;83.13
6096;BME280;25081;42.698;23.298;2024-03-07T10:48:44;95124.89;;;8.54;82.65
6096;BME280;25081;42.698;23.298;2024-03-07T10:50:58;95117.28;;;8.71;82.93
6096;BME280;25081;42.698;23.298;2024-03-07T10:53:06;95111.88;;;8.91;81.30
6096;BME280;25081;42.698;23.298;2024-03-07T10:55:15;95091.03;;;8.16;82.67
6096;BME280;25081;42.698;23.298;2024-03-07T10:57:26;95118.09;;;8.71;82.96
6096;BME280;25081;42.698;23.298;2024-03-07T10:59:32;95114.72;;;8.67;81.28
6096;BME280;25081;42.698;23.298;2024-03-07T11:01:43;95109.24;;;8.84;81.65
6096;BME280;25081;42.698;23.298;2024-03-07T11:03:51;95089.74;;;8.81;81.91
6096;BME280;25081;42.698;23.298;2024-03-07T11:06:00;95112.44;;;8.77;82.04
6096;BME280;25081;42.698;23.298;2024-03-07T11:08:09;95106.38;;;8.85;82.04
6096;BME280;25081;42.698;23.298;2024-03-07T11:10:19;95105.36;;;9.09;81.26
6096;BME280;25081;42.698;23.298;2024-03-07T11:12:28;95103.59;;;9.12;80.86
6096;BME280;25081;42.698;23.298;2024-03-07T11:14:37;95097.30;;;8.55;82.36
6096;BME280;25081;42.698;23.298;2024-03-07T11:16:46;95099.07;;;8.39;82.75
6096;BME280;25081;42.698;23.298;2024-03-07T11:19:26;95097.45;;;8.24;83.72
6096;BME280;25081;42.698;23.298;2024-03-07T11:21:43;95095.88;;;8.52;83.43
6096;BME280;25081;42.698;23.298;2024-03-07T11:23:52;95094.55;;;8.52;82.12
6096;BME280;25081;42.698;23.298;2024-03-07T11:26:05;95098.26;;;8.38;82.78
6096;BME280;25081;42.698;23.298;2024-03-07T11:28:14;95089.02;;;8.05;84.41